createdAt,value
2017-10-18T00:02:27.286Z,29.80
2017-10-18T00:04:56.473Z,26.73
2017-10-18T00:07:25.889Z,32.97
2017-10-18T00:09:55.307Z,36.13
2017-10-18T00:12:24.808Z,27.57
2017-10-18T00:14:53.995Z,28.60
2017-10-18T00:17:23.185Z,30.43
2017-10-18T00:19:53.672Z,25.00
2017-10-18T00:22:23.065Z,30.37
2017-10-18T00:24:52.433Z,34.17
2017-10-18T00:27:22.233Z,30.67
2017-10-18T00:29:51.634Z,29.70
2017-10-18T00:32:21.019Z,27.03
2017-10-18T00:34:51.439Z,34.40
2017-10-18T00:37:21.580Z,26.47
2017-10-18T00:39:51.737Z,37.83
2017-10-18T00:42:21.488Z,31.17
2017-10-18T00:44:50.861Z,29.43
2017-10-18T00:47:20.050Z,31.63
2017-10-18T00:49:50.553Z,31.73
2017-10-18T00:52:19.927Z,29.73
2017-10-18T00:54:49.133Z,30.33
2017-10-18T00:57:18.897Z,33.30
2017-10-18T00:59:48.088Z,37.60
2017-10-18T01:02:17.519Z,43.67
2017-10-18T01:04:47.239Z,32.40
2017-10-18T01:07:16.631Z,29.10
2017-10-18T01:09:46.016Z,36.70
2017-10-18T01:12:16.530Z,36.53
2017-10-18T01:14:45.706Z,29.93
2017-10-18T01:17:14.902Z,29.73
2017-10-18T01:19:44.961Z,29.73
2017-10-18T01:22:14.152Z,33.30
2017-10-18T01:24:43.535Z,37.37
2017-10-18T01:27:14.338Z,39.67
2017-10-18T01:29:43.717Z,31.23
2017-10-18T01:32:12.762Z,35.87
2017-10-18T01:34:42.164Z,41.03
2017-10-18T01:37:11.611Z,34.90
2017-10-18T01:39:40.987Z,41.73
2017-10-18T01:42:10.733Z,28.03
2017-10-18T01:44:40.112Z,41.67
2017-10-18T01:47:09.505Z,38.80
2017-10-18T01:49:39.997Z,35.53
2017-10-18T01:52:09.392Z,36.13
2017-10-18T01:54:38.768Z,43.53
2017-10-18T01:57:08.553Z,34.23
2017-10-18T01:59:37.732Z,33.87
2017-10-18T02:02:08.922Z,40.70
2017-10-18T02:04:38.128Z,33.77
2017-10-18T02:07:07.510Z,32.07
2017-10-18T02:09:37.380Z,36.20
2017-10-18T02:12:06.583Z,42.47
2017-10-18T02:14:35.969Z,29.80
2017-10-18T02:17:06.026Z,36.23
2017-10-18T02:19:35.431Z,34.73
2017-10-18T02:22:05.465Z,37.13
2017-10-18T02:24:34.869Z,36.10
2017-10-18T02:27:04.249Z,31.20
2017-10-18T02:29:34.251Z,36.83
2017-10-18T02:32:03.938Z,35.10
2017-10-18T02:34:33.383Z,33.10
2017-10-18T02:37:02.753Z,33.40
2017-10-18T02:39:32.698Z,37.00
2017-10-18T02:42:02.080Z,31.23
2017-10-18T02:44:31.465Z,34.03
2017-10-18T02:47:01.429Z,35.87
2017-10-18T02:49:30.813Z,36.50
2017-10-18T02:52:00.971Z,34.17
2017-10-18T02:54:30.180Z,32.13
2017-10-18T02:57:00.329Z,29.80
2017-10-18T02:59:29.533Z,39.57
2017-10-18T03:01:59.278Z,39.53
2017-10-18T03:04:28.684Z,33.73
2017-10-18T03:06:58.065Z,34.10
2017-10-18T03:09:29.060Z,38.50
2017-10-18T03:11:58.440Z,37.53
2017-10-18T03:14:27.826Z,35.60
2017-10-18T03:16:57.818Z,36.83
2017-10-18T03:19:27.476Z,35.53
2017-10-18T03:21:56.862Z,39.97
2017-10-18T03:24:26.588Z,37.00
2017-10-18T03:26:55.625Z,37.63
2017-10-18T03:29:25.114Z,44.47
2017-10-18T03:31:55.851Z,37.20
2017-10-18T03:34:24.895Z,32.90
2017-10-18T03:36:53.989Z,33.20
2017-10-18T03:39:23.951Z,35.63
2017-10-18T03:41:54.105Z,39.47
2017-10-18T03:44:23.317Z,34.23
2017-10-18T03:46:53.368Z,39.47
2017-10-18T03:49:22.754Z,44.40
2017-10-18T03:51:52.134Z,41.80
2017-10-18T03:54:24.953Z,36.77
2017-10-18T03:56:54.345Z,36.03
2017-10-18T03:59:24.514Z,46.37
2017-10-18T04:01:54.065Z,45.50
2017-10-18T04:04:23.438Z,45.27
2017-10-18T04:06:52.829Z,55.33
2017-10-18T04:09:22.940Z,35.93
2017-10-18T04:11:52.318Z,43.17
2017-10-18T04:14:21.703Z,40.07
2017-10-18T04:16:51.463Z,43.53
2017-10-18T04:19:20.846Z,38.20
2017-10-18T04:21:50.230Z,36.63
2017-10-18T04:24:19.939Z,41.13
2017-10-18T04:26:49.326Z,37.33
2017-10-18T04:29:18.716Z,46.03
2017-10-18T04:31:48.733Z,44.97
2017-10-18T04:34:17.922Z,40.10
2017-10-18T04:36:47.306Z,40.33
2017-10-18T04:39:17.776Z,42.83
2017-10-18T04:41:47.163Z,35.43
2017-10-18T04:44:17.321Z,39.53
2017-10-18T04:46:46.873Z,45.90
2017-10-18T04:49:16.247Z,33.57
2017-10-18T04:51:45.626Z,54.17
2017-10-18T04:54:15.627Z,38.93
2017-10-18T04:56:45.006Z,39.77
2017-10-18T04:59:14.393Z,33.60
2017-10-18T05:01:45.094Z,44.33
2017-10-18T05:04:14.323Z,40.37
2017-10-18T05:06:44.366Z,38.93
2017-10-18T05:09:15.588Z,46.77
2017-10-18T05:11:44.971Z,35.27
2017-10-18T05:14:14.388Z,51.50
2017-10-18T05:16:43.992Z,47.33
2017-10-18T05:19:14.144Z,41.80
2017-10-18T05:21:42.662Z,43.50
2017-10-18T05:24:12.185Z,41.27
2017-10-18T05:26:41.587Z,45.60
2017-10-18T05:29:10.785Z,55.40
2017-10-18T05:31:40.733Z,49.13
2017-10-18T05:34:10.108Z,46.90
2017-10-18T05:36:39.496Z,60.30
2017-10-18T05:39:09.194Z,55.30
2017-10-18T05:41:38.588Z,50.60
2017-10-18T05:44:07.981Z,55.80
2017-10-18T05:46:37.756Z,52.73
2017-10-18T05:49:07.147Z,58.80
2017-10-18T05:51:36.361Z,56.37
2017-10-18T05:54:07.586Z,65.23
2017-10-18T05:56:36.793Z,66.57
2017-10-18T05:59:06.178Z,69.37
2017-10-18T06:01:35.906Z,62.33
2017-10-18T06:04:06.045Z,56.57
2017-10-18T06:06:36.545Z,72.53
2017-10-18T06:09:05.604Z,68.70
2017-10-18T06:11:35.783Z,66.13
2017-10-18T06:14:05.518Z,79.50
2017-10-18T06:16:34.897Z,70.00
2017-10-18T06:19:03.743Z,56.23
2017-10-18T06:21:35.398Z,75.33
2017-10-18T06:24:06.080Z,78.27
2017-10-18T06:26:37.018Z,65.77
2017-10-18T06:29:06.217Z,78.30
2017-10-18T06:31:37.458Z,82.13
2017-10-18T06:34:06.854Z,76.60
2017-10-18T06:36:36.290Z,92.63
2017-10-18T06:39:05.221Z,94.83
2017-10-18T06:41:34.613Z,97.90
2017-10-18T06:44:04.134Z,91.30
2017-10-18T06:46:33.943Z,102.97
2017-10-18T06:49:03.512Z,95.30
2017-10-18T06:51:33.806Z,99.83
2017-10-18T06:54:04.242Z,104.33
2017-10-18T06:56:33.636Z,109.73
2017-10-18T06:59:03.025Z,92.80
2017-10-18T07:01:33.661Z,110.97
2017-10-18T07:04:03.804Z,96.40
2017-10-18T07:06:33.556Z,114.40
2017-10-18T07:09:02.767Z,111.80
2017-10-18T07:11:32.110Z,129.20
2017-10-18T07:14:01.821Z,106.00
2017-10-18T07:16:31.025Z,115.43
2017-10-18T07:19:00.604Z,129.40
2017-10-18T07:21:30.566Z,133.07
2017-10-18T07:24:00.101Z,98.40
2017-10-18T07:26:29.485Z,157.80
2017-10-18T07:28:59.225Z,166.70
2017-10-18T07:31:28.619Z,157.40
2017-10-18T07:33:58.474Z,173.80
2017-10-18T07:36:27.670Z,170.63
2017-10-18T07:38:56.625Z,168.30
2017-10-18T07:41:26.606Z,146.27
2017-10-18T07:43:56.643Z,121.97
2017-10-18T07:46:26.133Z,143.10
2017-10-18T07:48:55.537Z,118.70
2017-10-18T07:51:25.817Z,116.80
2017-10-18T07:53:55.366Z,116.17
2017-10-18T07:56:25.549Z,108.50
2017-10-18T07:58:55.281Z,108.90
2017-10-18T08:01:25.534Z,105.57
2017-10-18T08:03:55.258Z,115.83
2017-10-18T08:06:24.652Z,98.00
2017-10-18T08:08:54.426Z,101.23
2017-10-18T08:11:24.594Z,88.60
2017-10-18T08:13:54.424Z,100.97
2017-10-18T08:16:23.828Z,96.33
2017-10-18T08:18:53.235Z,96.37
2017-10-18T08:21:22.573Z,99.03
2017-10-18T08:23:51.967Z,89.10
2017-10-18T08:26:21.519Z,97.50
2017-10-18T08:28:51.698Z,98.20
2017-10-18T08:31:22.338Z,96.83
2017-10-18T08:33:52.521Z,92.73
2017-10-18T08:36:21.613Z,90.80
2017-10-18T08:38:51.338Z,94.60
2017-10-18T08:41:20.977Z,84.10
2017-10-18T08:43:50.365Z,92.60
2017-10-18T08:46:20.335Z,87.83
2017-10-18T08:48:49.371Z,87.57
2017-10-18T08:51:19.205Z,83.83
2017-10-18T08:53:49.022Z,87.00
2017-10-18T08:56:19.191Z,85.90
2017-10-18T08:58:48.733Z,87.17
2017-10-18T09:01:18.133Z,87.33
2017-10-18T09:03:47.537Z,79.83
2017-10-18T09:06:16.727Z,89.37
2017-10-18T09:08:46.590Z,83.33
2017-10-18T09:11:15.974Z,82.57
2017-10-18T09:13:45.170Z,78.10
2017-10-18T09:16:15.448Z,79.37
2017-10-18T09:18:44.899Z,68.77
2017-10-18T09:21:14.936Z,71.13
2017-10-18T09:23:45.094Z,69.43
2017-10-18T09:26:14.494Z,66.80
2017-10-18T09:28:44.286Z,68.53
2017-10-18T09:31:13.664Z,65.33
2017-10-18T09:33:43.086Z,66.27
2017-10-18T09:36:12.637Z,68.27
2017-10-18T09:38:42.018Z,63.27
2017-10-18T09:41:11.413Z,65.27
2017-10-18T09:43:41.163Z,66.57
2017-10-18T09:46:10.597Z,64.80
2017-10-18T09:48:39.980Z,58.97
2017-10-18T09:51:09.727Z,62.63
2017-10-18T09:53:39.113Z,61.20
2017-10-18T09:56:08.507Z,56.53
2017-10-18T09:58:38.282Z,61.50
2017-10-18T10:01:07.676Z,64.10
2017-10-18T10:03:37.075Z,58.73
2017-10-18T10:06:06.825Z,60.27
2017-10-18T10:08:37.856Z,58.10
2017-10-18T10:11:07.381Z,64.13
2017-10-18T10:13:36.581Z,60.87
2017-10-18T10:16:06.601Z,59.27
2017-10-18T10:21:39.996Z,49.20
2017-10-18T10:24:09.383Z,55.03
2017-10-18T10:26:38.783Z,50.07
2017-10-18T10:29:09.333Z,52.97
2017-10-18T10:31:38.726Z,51.57
2017-10-18T10:34:08.113Z,46.87
2017-10-18T10:36:38.282Z,48.67
2017-10-18T10:39:07.669Z,47.40
2017-10-18T10:41:38.156Z,49.57
2017-10-18T10:44:07.533Z,46.30
2017-10-18T10:46:37.689Z,40.70
2017-10-18T10:49:08.359Z,47.17
2017-10-18T10:51:37.778Z,49.57
2017-10-18T10:54:07.141Z,45.63
2017-10-18T10:56:37.007Z,42.17
2017-10-18T10:59:06.399Z,45.50
2017-10-18T11:01:35.773Z,44.43
2017-10-18T11:04:06.413Z,43.07
2017-10-18T11:06:35.793Z,38.07
2017-10-18T11:09:04.502Z,40.53
2017-10-18T11:11:33.992Z,38.47
2017-10-18T11:14:03.384Z,41.07
2017-10-18T11:16:32.769Z,39.73
2017-10-18T11:19:02.554Z,39.30
2017-10-18T11:21:31.950Z,41.90
2017-10-18T11:24:01.350Z,39.13
2017-10-18T11:26:32.178Z,41.97
2017-10-18T11:29:01.569Z,40.23
2017-10-18T11:31:30.990Z,36.37
2017-10-18T11:34:00.706Z,34.03
2017-10-18T11:36:30.087Z,37.37
2017-10-18T11:39:00.440Z,40.00
2017-10-18T11:41:29.832Z,34.63
2017-10-18T11:43:59.213Z,34.30
2017-10-18T11:46:30.314Z,36.70
2017-10-18T11:49:00.656Z,35.27
2017-10-18T11:51:30.690Z,34.67
2017-10-18T11:54:00.978Z,38.13
2017-10-18T11:56:30.575Z,33.17
2017-10-18T11:59:00.279Z,35.00
2017-10-18T12:01:29.669Z,34.83
2017-10-18T12:03:59.115Z,37.57
2017-10-18T12:06:28.765Z,36.50
2017-10-18T12:08:58.935Z,34.23
2017-10-18T12:11:28.345Z,35.40
2017-10-18T12:14:00.764Z,36.43
2017-10-18T12:16:30.188Z,34.10
2017-10-18T12:18:59.762Z,38.33
2017-10-18T12:21:29.526Z,37.63
2017-10-18T12:23:59.009Z,36.23
2017-10-18T12:26:28.900Z,40.90
2017-10-18T12:28:59.077Z,35.97
2017-10-18T12:31:28.570Z,35.47
2017-10-18T12:33:58.593Z,31.93
2017-10-18T12:36:28.816Z,34.33
2017-10-18T12:38:59.819Z,33.83
2017-10-18T12:41:31.638Z,31.77
2017-10-18T12:44:01.014Z,34.47
2017-10-18T12:46:30.905Z,34.00
2017-10-18T12:49:00.869Z,35.80
2017-10-18T12:51:31.040Z,35.63
2017-10-18T12:54:01.149Z,31.40
2017-10-18T12:56:30.742Z,35.60
2017-10-18T12:59:01.988Z,33.60
2017-10-18T13:01:31.389Z,35.87
2017-10-18T13:04:00.816Z,34.43
2017-10-18T13:06:31.333Z,30.57
2017-10-18T13:09:00.971Z,30.33
2017-10-18T13:11:30.380Z,29.80
2017-10-18T13:14:01.462Z,27.93
2017-10-18T13:16:32.742Z,33.07
2017-10-18T13:19:02.157Z,30.30
2017-10-18T13:21:31.580Z,31.27
2017-10-18T13:24:00.964Z,31.70
2017-10-18T13:26:30.906Z,32.17
2017-10-18T13:29:00.293Z,31.17
2017-10-18T13:31:33.002Z,31.20
2017-10-18T13:34:03.893Z,31.67
2017-10-18T13:36:35.148Z,31.10
2017-10-18T13:39:06.686Z,35.50
2017-10-18T13:41:37.619Z,37.07
2017-10-18T13:44:07.000Z,31.53
2017-10-18T13:46:36.410Z,29.20
2017-10-18T13:49:06.579Z,34.00
2017-10-18T13:51:35.958Z,31.03
2017-10-18T13:54:06.108Z,33.07
2017-10-18T13:56:42.865Z,35.50
2017-10-18T13:59:14.408Z,29.17
2017-10-18T14:01:45.856Z,32.10
2017-10-18T14:04:16.309Z,31.07
2017-10-18T14:06:45.513Z,30.57
2017-10-18T14:09:15.216Z,27.90
2017-10-18T14:11:44.615Z,34.03
2017-10-18T14:14:14.001Z,32.97
2017-10-18T14:16:44.388Z,31.77
2017-10-18T14:19:15.108Z,27.93
2017-10-18T14:21:44.752Z,32.00
2017-10-18T14:24:14.962Z,32.03
2017-10-18T14:26:44.392Z,31.30
2017-10-18T14:29:13.776Z,29.03
2017-10-18T14:31:43.161Z,32.37
2017-10-18T14:34:12.841Z,31.03
2017-10-18T14:36:41.881Z,35.67
2017-10-18T14:39:11.275Z,28.20
2017-10-18T14:41:40.992Z,30.07
2017-10-18T14:44:12.864Z,30.90
2017-10-18T14:46:42.789Z,32.63
2017-10-18T14:49:12.182Z,32.00
2017-10-18T14:51:41.570Z,30.70
2017-10-18T14:54:11.813Z,32.20
2017-10-18T14:56:41.965Z,33.63
2017-10-18T14:59:11.366Z,33.80
2017-10-18T15:01:41.947Z,32.03
2017-10-18T15:04:11.438Z,30.10
2017-10-18T15:06:40.838Z,34.73
2017-10-18T15:09:11.062Z,29.73
2017-10-18T15:11:40.714Z,31.13
2017-10-18T15:14:10.480Z,34.10
2017-10-18T15:16:39.890Z,32.47
2017-10-18T15:19:09.598Z,31.03
2017-10-18T15:21:38.985Z,33.17
2017-10-18T15:24:08.534Z,33.87
2017-10-18T15:26:38.062Z,34.27
2017-10-18T15:29:07.255Z,32.90
2017-10-18T15:31:36.777Z,33.60
2017-10-18T15:34:05.974Z,32.17
2017-10-18T15:36:36.172Z,32.37
2017-10-18T15:39:06.667Z,33.07
2017-10-18T15:41:38.276Z,33.17
2017-10-18T15:44:08.764Z,36.70
2017-10-18T15:46:38.211Z,33.60
2017-10-18T15:49:08.412Z,34.27
2017-10-18T15:51:37.613Z,34.90
2017-10-18T15:54:09.159Z,37.50
2017-10-18T15:56:38.541Z,30.73
2017-10-18T15:59:08.147Z,32.17
2017-10-18T16:01:38.077Z,35.87
2017-10-18T16:04:07.467Z,33.63
2017-10-18T16:06:36.844Z,34.93
2017-10-18T16:09:06.292Z,36.57
2017-10-18T16:11:35.696Z,33.30
2017-10-18T16:14:05.083Z,37.20
2017-10-18T16:16:35.074Z,38.17
2017-10-18T16:19:05.038Z,35.77
2017-10-18T16:21:35.201Z,37.20
2017-10-18T16:24:04.933Z,35.20
2017-10-18T16:26:34.364Z,39.33
2017-10-18T16:29:03.754Z,37.80
2017-10-18T16:31:33.548Z,44.43
2017-10-18T16:34:03.578Z,38.90
2017-10-18T16:36:33.024Z,43.53
2017-10-18T16:39:02.767Z,38.97
2017-10-18T16:41:32.208Z,39.47
2017-10-18T16:44:23.946Z,38.20
2017-10-18T16:46:54.249Z,35.50
2017-10-18T16:49:23.753Z,41.53
2017-10-18T16:51:53.945Z,43.53
2017-10-18T16:54:23.648Z,44.90
2017-10-18T16:56:53.062Z,49.83
2017-10-18T16:59:22.451Z,47.67
2017-10-18T17:01:52.214Z,47.83
2017-10-18T17:04:21.614Z,50.77
2017-10-18T17:06:52.037Z,53.07
2017-10-18T17:09:22.097Z,48.23
2017-10-18T17:11:51.531Z,47.23
2017-10-18T17:14:20.919Z,50.70
2017-10-18T17:16:50.962Z,54.80
2017-10-18T17:19:20.167Z,53.80
2017-10-18T17:21:49.545Z,54.90
2017-10-18T17:24:19.507Z,58.70
2017-10-18T17:26:48.897Z,54.03
2017-10-18T17:29:18.285Z,50.50
2017-10-18T17:31:48.446Z,56.23
2017-10-18T17:34:17.848Z,53.90
2017-10-18T17:36:47.246Z,56.53
2017-10-18T17:39:17.730Z,56.87
2017-10-18T17:41:48.290Z,55.37
2017-10-18T17:44:17.791Z,52.33
2017-10-18T17:46:47.809Z,57.37
2017-10-18T17:49:17.210Z,49.33
2017-10-18T17:51:46.606Z,53.03
2017-10-18T17:54:16.807Z,61.33
2017-10-18T17:56:46.505Z,64.60
2017-10-18T17:59:15.936Z,57.50
2017-10-18T18:01:45.110Z,56.33
2017-10-18T18:04:14.794Z,51.70
2017-10-18T18:06:44.169Z,64.70
2017-10-18T18:09:13.602Z,58.73
2017-10-18T18:11:43.292Z,59.23
2017-10-18T18:14:12.497Z,60.53
2017-10-18T18:16:41.891Z,56.73
2017-10-18T18:19:11.603Z,57.40
2017-10-18T18:21:41.769Z,57.57
2017-10-18T18:24:11.164Z,56.20
2017-10-18T18:26:40.944Z,62.70
2017-10-18T18:29:10.332Z,53.77
2017-10-18T18:31:39.742Z,58.53
2017-10-18T18:34:09.146Z,56.60
2017-10-18T18:36:38.518Z,68.70
2017-10-18T18:39:07.907Z,67.40
2017-10-18T18:41:37.513Z,69.50
2017-10-18T18:44:06.900Z,65.27
2017-10-18T18:46:36.276Z,67.17
2017-10-18T18:49:06.451Z,66.10
2017-10-18T18:51:35.885Z,54.27
2017-10-18T18:54:05.289Z,61.93
2017-10-18T18:56:35.358Z,64.97
2017-10-18T18:59:04.742Z,57.97
2017-10-18T19:01:34.146Z,55.67
2017-10-18T19:04:03.541Z,55.50
2017-10-18T19:06:33.706Z,60.63
2017-10-18T19:09:03.364Z,59.53
2017-10-18T19:11:32.758Z,72.47
2017-10-18T19:14:02.155Z,67.53
2017-10-18T19:16:31.955Z,57.67
2017-10-18T19:19:01.152Z,57.87
2017-10-18T19:21:31.321Z,56.47
2017-10-18T19:24:01.064Z,56.50
2017-10-18T19:26:30.280Z,60.63
2017-10-18T19:29:00.590Z,52.93
2017-10-18T19:31:30.090Z,58.90
2017-10-18T19:33:59.281Z,60.60
2017-10-18T19:36:29.473Z,59.80
2017-10-18T19:38:59.210Z,61.37
2017-10-18T19:41:28.580Z,55.97
2017-10-18T19:43:57.978Z,52.77
2017-10-18T19:46:27.738Z,60.20
2017-10-18T19:48:57.130Z,58.23
2017-10-18T19:51:26.496Z,54.43
2017-10-18T19:53:56.928Z,58.67
2017-10-18T19:56:26.324Z,56.60
2017-10-18T19:58:55.547Z,61.43
2017-10-18T20:01:25.204Z,63.83
2017-10-18T20:03:55.353Z,52.37
2017-10-18T20:06:24.758Z,52.53
2017-10-18T20:08:54.539Z,58.77
2017-10-18T20:11:23.977Z,59.97
2017-10-18T20:13:53.402Z,60.93
2017-10-18T20:16:23.568Z,59.73
2017-10-18T20:18:52.959Z,59.43
2017-10-18T20:21:23.374Z,91.07
2017-10-18T20:23:52.754Z,95.93
2017-10-18T20:26:21.949Z,83.03
2017-10-18T20:28:51.842Z,62.70
2017-10-18T20:31:22.000Z,60.77
2017-10-18T20:33:51.393Z,68.50
2017-10-18T20:36:21.873Z,62.23
2017-10-18T20:38:51.279Z,59.83
2017-10-18T20:41:21.510Z,65.43
2017-10-18T20:43:50.710Z,59.10
2017-10-18T20:46:20.111Z,58.60
2017-10-18T20:48:50.793Z,59.63
2017-10-18T20:51:20.302Z,58.37
2017-10-18T20:53:50.368Z,61.60
2017-10-18T20:56:21.330Z,65.73
2017-10-18T20:58:50.930Z,78.93
2017-10-18T21:01:20.959Z,80.37
2017-10-18T21:03:50.382Z,69.17
2017-10-18T21:06:19.769Z,70.87
2017-10-18T21:08:49.309Z,73.07
2017-10-18T21:11:19.016Z,63.87
2017-10-18T21:13:48.394Z,64.57
2017-10-18T21:16:17.799Z,73.70
2017-10-18T21:18:48.477Z,71.07
2017-10-18T21:21:17.873Z,67.63
2017-10-18T21:23:47.264Z,68.77
2017-10-18T21:26:17.206Z,90.10
2017-10-18T21:28:47.349Z,87.93
2017-10-18T21:31:16.909Z,69.90
2017-10-18T21:33:46.622Z,71.80
2017-10-18T21:36:16.025Z,72.17
2017-10-18T21:38:45.206Z,68.70
2017-10-18T21:41:14.713Z,74.93
2017-10-18T21:43:44.672Z,67.80
2017-10-18T21:46:14.066Z,79.70
2017-10-18T21:48:44.132Z,87.53
2017-10-18T21:51:13.516Z,97.47
2017-10-18T21:53:42.722Z,92.60
2017-10-18T21:56:12.484Z,77.87
2017-10-18T21:58:41.877Z,86.77
2017-10-18T22:01:11.264Z,86.60
2017-10-18T22:03:40.762Z,81.37
2017-10-18T22:06:10.903Z,72.73
2017-10-18T22:08:41.414Z,78.37
2017-10-18T22:11:10.805Z,65.97
2017-10-18T22:13:40.192Z,60.00
2017-10-18T22:16:09.949Z,61.87
2017-10-18T22:18:39.330Z,68.03
2017-10-18T22:21:08.706Z,67.50
2017-10-18T22:23:40.237Z,52.07
2017-10-18T22:26:09.618Z,57.27
2017-10-18T22:28:39.773Z,61.17
2017-10-18T22:31:09.503Z,55.73
2017-10-18T22:33:38.889Z,62.77
2017-10-18T22:36:08.260Z,60.40
2017-10-18T22:38:37.962Z,56.60
2017-10-18T22:41:07.352Z,57.50
2017-10-18T22:43:36.740Z,57.67
2017-10-18T22:46:07.319Z,59.10
2017-10-18T22:48:36.708Z,51.37
2017-10-18T22:51:06.865Z,45.13
2017-10-18T22:53:36.598Z,44.87
2017-10-18T22:56:06.002Z,52.43
2017-10-18T22:58:35.448Z,48.60
2017-10-18T23:01:05.095Z,42.33
2017-10-18T23:03:35.238Z,51.17
2017-10-18T23:06:04.462Z,56.20
2017-10-18T23:08:34.158Z,50.30
2017-10-18T23:11:04.313Z,54.47
2017-10-18T23:13:33.701Z,57.73
2017-10-18T23:16:04.418Z,62.73
2017-10-18T23:18:33.804Z,58.30
2017-10-18T23:21:05.189Z,50.97
2017-10-18T23:23:34.623Z,49.80
2017-10-18T23:26:04.014Z,56.07
2017-10-18T23:28:33.649Z,56.93
2017-10-18T23:31:03.039Z,55.03
2017-10-18T23:33:32.408Z,52.70
2017-10-18T23:36:03.210Z,57.63
2017-10-18T23:38:32.627Z,52.43
2017-10-18T23:41:02.037Z,51.40
2017-10-18T23:43:32.050Z,49.60
2017-10-18T23:46:01.438Z,57.57
2017-10-18T23:48:31.605Z,51.73
2017-10-18T23:51:01.335Z,55.50
2017-10-18T23:53:30.730Z,44.13
2017-10-18T23:56:00.114Z,67.97
2017-10-18T23:58:30.638Z,54.30
